Time;durP1;ratioP1;P1;durP2;ratioP2;P2;SDS_P1;SDS_P2;PMS_P1;PMS_P2;Temp;Humidity;BMP_temperature;BMP_pressure;BME280_temperature;BME280_humidity;BME280_pressure;Samples;Min_cycle;Max_cycle;Signal;HPM_P1;HPM_P2
2023/03/15 00:00:59;;;;;;;;;;;;;;;1.54;89.38;101166.94;5022497;28;19918;-60
2023/03/15 00:03:24;;;;;;;;;;;;;;;1.47;89.81;101163.91;5025386;28;20032;-60
2023/03/15 00:05:51;;;;;;;;;;;;;;;1.43;90.33;101157.19;5024333;28;19917;-60
2023/03/15 00:08:16;;;;;;;;;;;;;;;1.42;91.08;101160.72;5026527;28;19925;-60
2023/03/15 00:10:42;;;;;;;;;;;;;;;1.42;91.68;101159.91;5024652;28;19924;-60
2023/03/15 00:13:08;;;;;;;;;;;;;;;1.38;92.63;101169.75;5025147;28;19978;-60
2023/03/15 00:15:33;;;;;;;;;;;;;;;1.34;93.70;101164.81;5021385;28;20006;-60
2023/03/15 00:18:02;;;;;;;;;;;;;;;1.32;94.36;101164.94;5024050;28;19927;-60
2023/03/15 00:20:27;;;;;;;;;;;;;;;1.32;94.86;101167.53;5011866;28;19964;-60
2023/03/15 00:22:52;;;;;;;;;;;;;;;1.29;95.36;101164.28;5024772;28;19921;-60
2023/03/15 00:25:17;;;;;;;;;;;;;;;1.28;95.76;101158.22;5024918;28;20408;-60
2023/03/15 00:27:42;;;;;;;;;;;;;;;1.29;96.03;101159.06;5021902;28;19921;-61
2023/03/15 00:30:08;;;;;;;;;;;;;;;1.31;96.19;101158.03;5022753;28;20402;-60
2023/03/15 00:32:33;;;;;;;;;;;;;;;1.35;96.30;101154.25;5019528;28;19917;-61
2023/03/15 00:34:58;;;;;;;;;;;;;;;1.40;96.44;101157.38;5025220;28;19924;-60
2023/03/15 00:37:24;;;;;;;;;;;;;;;1.41;96.37;101164.28;5023540;28;20302;-60
2023/03/15 00:39:50;;;;;;;;;;;;;;;1.44;96.53;101158.00;5022082;28;19918;-60
2023/03/15 00:42:15;;;;;;;;;;;;;;;1.45;96.53;101162.34;5020673;28;20097;-61
2023/03/15 00:44:41;;;;;;;;;;;;;;;1.46;96.75;101164.84;5021643;28;19917;-60
2023/03/15 00:47:06;;;;;;;;;;;;;;;1.48;96.83;101164.75;5026585;28;20445;-61
2023/03/15 00:49:32;;;;;;;;;;;;;;;1.49;97.10;101161.19;5021426;28;19925;-60
2023/03/15 00:51:57;;;;;;;;;;;;;;;1.52;97.55;101171.44;5025375;28;19960;-60
2023/03/15 00:54:23;;;;;;;;;;;;;;;1.54;97.76;101165.16;5019973;28;20335;-61
2023/03/15 00:56:49;;;;;;;;;;;;;;;1.59;98.10;101171.84;5023151;28;19917;-61
2023/03/15 00:59:14;;;;;;;;;;;;;;;1.63;98.26;101175.94;5023508;28;20547;-61
2023/03/15 01:01:43;;;;;;;;;;;;;;;1.70;98.58;101192.88;5026831;28;19917;-61
2023/03/15 01:04:08;;;;;;;;;;;;;;;1.74;98.82;101197.00;5021631;28;20004;-61
2023/03/15 01:06:33;;;;;;;;;;;;;;;1.77;98.56;101200.25;5025398;28;20004;-61
2023/03/15 01:09:00;;;;;;;;;;;;;;;1.83;97.86;101206.84;5020421;28;19948;-60
2023/03/15 01:11:26;;;;;;;;;;;;;;;1.87;97.59;101216.16;5028280;28;20004;-60
2023/03/15 01:13:52;;;;;;;;;;;;;;;1.93;97.48;101212.25;5028699;28;19928;-61
2023/03/15 01:16:17;;;;;;;;;;;;;;;2.00;97.33;101218.75;5028692;28;19917;-60
2023/03/15 01:18:43;;;;;;;;;;;;;;;2.06;97.18;101219.19;5026629;28;19924;-60
2023/03/15 01:21:09;;;;;;;;;;;;;;;2.13;97.00;101220.41;5029124;28;19924;-60
2023/03/15 01:23:34;;;;;;;;;;;;;;;2.16;96.78;101227.22;5023243;28;19917;-61
2023/03/15 01:26:00;;;;;;;;;;;;;;;2.15;96.49;101221.16;5026487;28;19917;-61
2023/03/15 01:28:26;;;;;;;;;;;;;;;2.05;96.32;101211.44;5026294;28;19936;-60
2023/03/15 01:30:51;;;;;;;;;;;;;;;2.08;95.88;101229.53;5016788;28;19914;-60
2023/03/15 01:33:17;;;;;;;;;;;;;;;2.07;95.77;101233.13;5027098;28;19960;-60
2023/03/15 01:35:42;;;;;;;;;;;;;;;2.05;95.34;101225.38;5029960;28;19929;-61
2023/03/15 01:38:08;;;;;;;;;;;;;;;2.02;95.10;101233.41;5023522;28;20410;-60
2023/03/15 01:40:33;;;;;;;;;;;;;;;2.02;94.82;101235.19;5026928;28;19925;-60
2023/03/15 01:43:01;;;;;;;;;;;;;;;2.01;94.61;101236.97;5027697;28;19921;-61
2023/03/15 01:45:44;;;;;;;;;;;;;;;2.03;94.60;101245.59;5026263;28;19928;-61
2023/03/15 01:48:10;;;;;;;;;;;;;;;2.03;94.18;101240.34;5021557;28;20367;-60
2023/03/15 01:50:35;;;;;;;;;;;;;;;2.05;94.34;101241.09;5024664;28;19943;-60
2023/03/15 01:53:00;;;;;;;;;;;;;;;2.06;93.87;101253.22;5020536;28;19983;-60
2023/03/15 01:55:25;;;;;;;;;;;;;;;2.05;93.89;101248.09;5027223;28;19917;-60
2023/03/15 01:57:54;;;;;;;;;;;;;;;2.05;93.68;101258.56;5025679;28;20511;-60
2023/03/15 02:00:20;;;;;;;;;;;;;;;2.02;93.38;101256.13;5027716;28;19917;-60
2023/03/15 02:02:51;;;;;;;;;;;;;;;1.99;93.37;101254.56;5021217;28;19921;-61
2023/03/15 02:05:21;;;;;;;;;;;;;;;1.97;93.29;101259.09;5027372;28;19955;-60
2023/03/15 02:07:49;;;;;;;;;;;;;;;1.96;93.13;101256.56;5019305;28;19932;-61
2023/03/15 02:10:19;;;;;;;;;;;;;;;1.95;93.13;101263.59;5026510;28;19931;-61
2023/03/15 02:12:46;;;;;;;;;;;;;;;1.98;92.90;101258.13;5027703;28;20306;-60
2023/03/15 02:15:12;;;;;;;;;;;;;;;1.97;93.21;101258.25;5026469;28;19963;-60
2023/03/15 02:17:42;;;;;;;;;;;;;;;1.89;93.16;101252.69;5016710;28;20004;-61
2023/03/15 02:20:17;;;;;;;;;;;;;;;1.80;93.18;101254.16;5020194;28;20004;-61
2023/03/15 02:22:48;;;;;;;;;;;;;;;1.69;93.67;101248.81;5022871;28;20035;-60
2023/03/15 02:25:20;;;;;;;;;;;;;;;1.64;94.03;101246.50;5020011;28;20325;-61
2023/03/15 02:27:45;;;;;;;;;;;;;;;1.60;94.32;101245.03;5024905;28;19917;-60
2023/03/15 02:30:10;;;;;;;;;;;;;;;1.58;94.50;101253.94;5025799;28;19953;-61
2023/03/15 02:32:36;;;;;;;;;;;;;;;1.58;94.57;101251.31;5024687;28;19922;-60
2023/03/15 02:35:01;;;;;;;;;;;;;;;1.53;94.97;101252.47;5028931;28;20829;-61
2023/03/15 02:37:26;;;;;;;;;;;;;;;1.53;95.34;101252.47;5024169;28;19959;-60
2023/03/15 02:39:51;;;;;;;;;;;;;;;1.50;95.57;101252.66;5021435;28;20008;-61
2023/03/15 02:42:18;;;;;;;;;;;;;;;1.49;96.12;101258.84;5025763;28;20384;-61
2023/03/15 02:44:44;;;;;;;;;;;;;;;1.48;96.39;101258.94;5021298;28;19913;-60
2023/03/15 02:47:12;;;;;;;;;;;;;;;1.50;96.70;101260.53;5023265;28;19914;-60
2023/03/15 02:49:58;;;;;;;;;;;;;;;1.53;97.12;101268.16;5029069;28;19975;-61
2023/03/15 02:52:23;;;;;;;;;;;;;;;1.60;96.88;101276.44;5024093;28;19917;-60
2023/03/15 02:54:48;;;;;;;;;;;;;;;1.63;96.61;101276.25;5028234;28;19917;-60
2023/03/15 02:57:15;;;;;;;;;;;;;;;1.68;96.55;101275.94;5017790;28;19959;-61
2023/03/15 02:59:43;;;;;;;;;;;;;;;1.71;97.02;101278.34;5022341;28;20438;-60
2023/03/15 03:02:10;;;;;;;;;;;;;;;1.75;97.40;101279.84;5020980;28;19917;-61
2023/03/15 03:04:35;;;;;;;;;;;;;;;1.78;97.39;101284.84;5021442;28;20008;-60
2023/03/15 03:07:01;;;;;;;;;;;;;;;1.79;97.71;101283.91;5027447;28;20020;-60
2023/03/15 03:09:26;;;;;;;;;;;;;;;1.77;97.61;101291.88;5028893;28;19924;-61
2023/03/15 03:11:51;;;;;;;;;;;;;;;1.79;97.82;101294.38;5025603;28;19913;-61
2023/03/15 03:14:17;;;;;;;;;;;;;;;1.82;97.91;101305.50;5021892;28;19935;-60
2023/03/15 03:16:42;;;;;;;;;;;;;;;1.86;97.58;101308.75;5027131;28;20051;-61
2023/03/15 03:19:08;;;;;;;;;;;;;;;1.89;97.50;101316.38;5025394;28;20398;-61
2023/03/15 03:21:33;;;;;;;;;;;;;;;1.94;97.45;101318.69;5018540;28;20036;-60
2023/03/15 03:23:58;;;;;;;;;;;;;;;1.93;97.52;101322.25;5026432;28;19921;-60
2023/03/15 03:26:26;;;;;;;;;;;;;;;1.92;97.25;101324.03;5029115;28;19959;-60
2023/03/15 03:28:52;;;;;;;;;;;;;;;1.92;97.45;101325.81;5026012;28;19924;-61
2023/03/15 03:31:19;;;;;;;;;;;;;;;1.92;97.69;101331.06;5024018;28;19921;-61
2023/03/15 03:33:45;;;;;;;;;;;;;;;1.90;97.44;101336.41;5027769;28;20051;-60
2023/03/15 03:36:11;;;;;;;;;;;;;;;1.88;97.37;101348.75;5029601;28;20000;-60
2023/03/15 03:38:38;;;;;;;;;;;;;;;1.81;97.19;101350.09;5027891;28;19949;-60
2023/03/15 03:41:03;;;;;;;;;;;;;;;1.75;97.09;101355.75;5025587;28;20610;-60
2023/03/15 03:43:28;;;;;;;;;;;;;;;1.69;96.94;101356.13;5020392;28;20016;-60
2023/03/15 03:45:53;;;;;;;;;;;;;;;1.63;96.63;101351.31;5024901;28;20327;-60
2023/03/15 03:48:18;;;;;;;;;;;;;;;1.60;96.52;101356.75;5020211;28;19924;-60
2023/03/15 03:50:44;;;;;;;;;;;;;;;1.54;96.54;101358.84;5020697;28;20291;-60
2023/03/15 03:53:09;;;;;;;;;;;;;;;1.50;96.33;101364.38;5022280;28;19913;-60
2023/03/15 03:55:34;;;;;;;;;;;;;;;1.45;96.79;101364.69;5019827;28;19914;-60
2023/03/15 03:57:59;;;;;;;;;;;;;;;1.42;97.26;101357.00;5025572;28;19960;-60
2023/03/15 04:00:25;;;;;;;;;;;;;;;1.42;97.68;101362.22;5025369;28;19925;-60
2023/03/15 04:02:52;;;;;;;;;;;;;;;1.44;98.02;101365.59;5024211;28;20405;-60
2023/03/15 04:05:18;;;;;;;;;;;;;;;1.44;98.54;101373.44;5017851;28;19926;-60
2023/03/15 04:07:43;;;;;;;;;;;;;;;1.40;98.73;101374.56;5020823;28;19913;-60
2023/03/15 04:10:08;;;;;;;;;;;;;;;1.37;98.83;101366.09;5024471;28;19917;-60
2023/03/15 04:12:33;;;;;;;;;;;;;;;1.37;99.19;101373.94;5026984;28;19913;-60
2023/03/15 04:14:59;;;;;;;;;;;;;;;1.35;99.38;101384.50;5016673;28;19928;-60
2023/03/15 04:17:24;;;;;;;;;;;;;;;1.32;99.74;101392.53;5023129;28;19918;-60
2023/03/15 04:19:49;;;;;;;;;;;;;;;1.27;99.60;101405.09;5021765;28;19948;-60
2023/03/15 04:22:14;;;;;;;;;;;;;;;1.19;99.79;101402.97;5026514;28;19913;-60
2023/03/15 04:24:40;;;;;;;;;;;;;;;1.14;99.83;101398.94;5024383;28;20012;-60
2023/03/15 04:27:05;;;;;;;;;;;;;;;1.07;99.76;101403.72;5018131;28;20371;-60
2023/03/15 04:29:30;;;;;;;;;;;;;;;1.05;100.00;101405.59;5025666;28;20352;-61
2023/03/15 04:32:00;;;;;;;;;;;;;;;1.05;100.00;101417.81;5018469;28;20293;-60
2023/03/15 04:34:27;;;;;;;;;;;;;;;1.02;100.00;101416.25;5027936;28;19924;-60
2023/03/15 04:36:53;;;;;;;;;;;;;;;1.04;100.00;101419.59;5025049;28;19913;-61
2023/03/15 04:39:18;;;;;;;;;;;;;;;1.08;100.00;101422.84;5030962;28;19920;-60
2023/03/15 04:41:43;;;;;;;;;;;;;;;1.10;100.00;101426.22;5027089;28;19925;-60
2023/03/15 04:44:09;;;;;;;;;;;;;;;1.15;100.00;101426.75;5025249;28;19961;-60
2023/03/15 04:46:34;;;;;;;;;;;;;;;1.19;100.00;101436.13;5026719;28;20409;-60
2023/03/15 04:49:00;;;;;;;;;;;;;;;1.22;100.00;101438.56;5030379;28;20519;-60
2023/03/15 04:51:25;;;;;;;;;;;;;;;1.26;100.00;101434.81;5024968;28;20008;-60
2023/03/15 04:53:50;;;;;;;;;;;;;;;1.31;100.00;101437.13;5016657;28;20004;-60
2023/03/15 04:56:16;;;;;;;;;;;;;;;1.31;100.00;101442.34;5025533;28;19933;-60
2023/03/15 04:58:41;;;;;;;;;;;;;;;1.30;100.00;101444.13;5025698;28;19951;-60
2023/03/15 05:01:06;;;;;;;;;;;;;;;1.28;100.00;101445.16;5028068;28;20498;-60
2023/03/15 05:03:31;;;;;;;;;;;;;;;1.22;100.00;101451.63;5019277;28;19918;-60
2023/03/15 05:05:57;;;;;;;;;;;;;;;1.17;100.00;101453.69;5018967;28;20356;-60
2023/03/15 05:08:22;;;;;;;;;;;;;;;1.10;100.00;101455.00;5027326;28;20451;-60
2023/03/15 05:10:47;;;;;;;;;;;;;;;1.04;100.00;101456.22;5018258;28;19921;-60
2023/03/15 05:13:12;;;;;;;;;;;;;;;0.99;100.00;101460.06;5018095;28;20429;-61
2023/03/15 05:15:37;;;;;;;;;;;;;;;0.95;100.00;101462.00;5028929;28;19909;-60
2023/03/15 05:18:02;;;;;;;;;;;;;;;0.93;100.00;101463.88;5017271;28;20870;-60
2023/03/15 05:20:28;;;;;;;;;;;;;;;0.91;100.00;101458.75;5027074;28;20394;-60
2023/03/15 05:22:53;;;;;;;;;;;;;;;0.89;100.00;101463.22;5029974;28;19940;-60
2023/03/15 05:25:18;;;;;;;;;;;;;;;0.85;100.00;101472.16;5030565;28;20388;-60
2023/03/15 05:27:45;;;;;;;;;;;;;;;0.81;100.00;101467.22;5028627;28;19924;-60
2023/03/15 05:30:11;;;;;;;;;;;;;;;0.80;100.00;101473.38;5029484;28;19996;-60
2023/03/15 05:32:38;;;;;;;;;;;;;;;0.81;100.00;101478.53;5026317;28;19994;-60
2023/03/15 05:35:03;;;;;;;;;;;;;;;0.85;100.00;101484.41;5020988;28;20014;-60
2023/03/15 05:37:31;;;;;;;;;;;;;;;0.86;100.00;101486.09;5030658;28;20414;-60
2023/03/15 05:39:56;;;;;;;;;;;;;;;0.87;100.00;101490.41;5026549;28;20151;-60
2023/03/15 05:42:24;;;;;;;;;;;;;;;0.88;100.00;101498.16;5027900;28;20036;-60
2023/03/15 05:44:51;;;;;;;;;;;;;;;0.89;100.00;101499.84;5017872;28;19979;-60
2023/03/15 05:47:17;;;;;;;;;;;;;;;0.90;100.00;101500.69;5023003;28;19936;-60
2023/03/15 05:49:42;;;;;;;;;;;;;;;0.87;100.00;101506.94;5026922;28;19921;-60
2023/03/15 05:52:07;;;;;;;;;;;;;;;0.84;100.00;101506.25;5029951;28;19921;-60
2023/03/15 05:54:32;;;;;;;;;;;;;;;0.82;100.00;101508.13;5024195;28;19987;-60
2023/03/15 05:56:57;;;;;;;;;;;;;;;0.82;100.00;101514.19;5024985;28;19935;-60
2023/03/15 05:59:22;;;;;;;;;;;;;;;0.84;100.00;101511.47;5025710;28;19920;-60
2023/03/15 06:01:48;;;;;;;;;;;;;;;0.86;100.00;101513.06;5019256;28;19921;-60
2023/03/15 06:04:13;;;;;;;;;;;;;;;0.87;100.00;101522.63;5024623;28;20000;-60
2023/03/15 06:06:38;;;;;;;;;;;;;;;0.90;100.00;101519.81;5029315;28;19917;-60
2023/03/15 06:09:03;;;;;;;;;;;;;;;0.92;100.00;101527.56;5021259;28;20436;-59
2023/03/15 06:11:28;;;;;;;;;;;;;;;0.93;100.00;101529.25;5025105;28;19921;-60
2023/03/15 06:13:53;;;;;;;;;;;;;;;0.92;100.00;101528.41;5018450;28;20701;-59
2023/03/15 06:16:19;;;;;;;;;;;;;;;0.90;100.00;101538.13;5020618;28;19917;-59
2023/03/15 06:18:44;;;;;;;;;;;;;;;0.88;100.00;101540.00;5025556;28;20412;-60
2023/03/15 06:21:09;;;;;;;;;;;;;;;0.84;100.00;101548.91;5024371;28;20915;-60
2023/03/15 06:23:34;;;;;;;;;;;;;;;0.81;100.00;101546.50;5022156;28;19959;-60
2023/03/15 06:25:59;;;;;;;;;;;;;;;0.77;100.00;101555.44;5018715;28;19917;-60
2023/03/15 06:28:25;;;;;;;;;;;;;;;0.77;100.00;101562.44;5022797;28;19925;-60
2023/03/15 06:30:50;;;;;;;;;;;;;;;0.78;100.00;101561.53;5025851;28;19917;-60
2023/03/15 06:33:15;;;;;;;;;;;;;;;0.78;100.00;101564.97;5018006;28;20421;-60
2023/03/15 06:35:41;;;;;;;;;;;;;;;0.81;100.00;101566.56;5023548;28;20295;-60
2023/03/15 06:38:06;;;;;;;;;;;;;;;0.84;100.00;101576.84;5026114;28;20395;-59
2023/03/15 06:40:31;;;;;;;;;;;;;;;0.83;100.00;101583.84;5025665;28;19927;-60
2023/03/15 06:42:56;;;;;;;;;;;;;;;0.82;100.00;101592.63;5027167;28;19921;-60
2023/03/15 06:45:22;;;;;;;;;;;;;;;0.85;100.00;101597.66;5024046;28;20434;-60
2023/03/15 06:47:47;;;;;;;;;;;;;;;0.86;100.00;101594.13;5028201;28;19913;-60
2023/03/15 06:50:12;;;;;;;;;;;;;;;0.86;100.00;101599.34;5023000;28;20478;-60
2023/03/15 06:52:37;;;;;;;;;;;;;;;0.87;100.00;101610.69;5023255;28;19925;-60
2023/03/15 06:55:03;;;;;;;;;;;;;;;0.87;100.00;101616.75;5027449;28;19979;-60
2023/03/15 06:57:28;;;;;;;;;;;;;;;0.89;100.00;101624.50;5028577;28;20465;-60
2023/03/15 06:59:53;;;;;;;;;;;;;;;0.90;100.00;101626.19;5025455;28;19917;-60
2023/03/15 07:02:18;;;;;;;;;;;;;;;0.92;100.00;101632.16;5022607;28;19917;-60
2023/03/15 07:04:44;;;;;;;;;;;;;;;0.93;100.00;101634.69;5022012;28;19914;-60
2023/03/15 07:07:10;;;;;;;;;;;;;;;0.99;100.00;101630.88;5022967;28;19924;-60
2023/03/15 07:09:35;;;;;;;;;;;;;;;1.08;100.00;101624.25;5021428;28;19921;-60
2023/03/15 07:12:00;;;;;;;;;;;;;;;1.15;100.00;101638.63;5024745;28;19956;-58
2023/03/15 07:14:25;;;;;;;;;;;;;;;1.21;100.00;101640.91;5023274;28;20294;-62
2023/03/15 07:16:50;;;;;;;;;;;;;;;1.27;100.00;101643.16;5026197;28;19924;-62
2023/03/15 07:19:15;;;;;;;;;;;;;;;1.31;100.00;101652.50;5026448;28;19924;-62
2023/03/15 07:21:41;;;;;;;;;;;;;;;1.36;100.00;101658.31;5023115;28;19939;-62
2023/03/15 07:24:06;;;;;;;;;;;;;;;1.36;100.00;101660.94;5028815;28;19916;-62
2023/03/15 07:26:31;;;;;;;;;;;;;;;1.38;100.00;101666.91;5026204;28;19917;-62
2023/03/15 07:28:56;;;;;;;;;;;;;;;1.43;100.00;101667.47;5022186;28;19937;-62
2023/03/15 07:31:21;;;;;;;;;;;;;;;1.50;100.00;101686.28;5026386;28;20282;-62
2023/03/15 07:33:47;;;;;;;;;;;;;;;1.62;100.00;101682.94;5021196;28;19959;-62
2023/03/15 07:36:12;;;;;;;;;;;;;;;1.73;100.00;101687.50;5019575;28;19917;-62
2023/03/15 07:38:37;;;;;;;;;;;;;;;1.86;100.00;101688.47;5023880;28;19918;-63
2023/03/15 07:41:04;;;;;;;;;;;;;;;1.97;100.00;101690.41;5019634;28;19932;-62
2023/03/15 07:43:29;;;;;;;;;;;;;;;2.03;100.00;101690.91;5024141;28;19917;-62
2023/03/15 07:45:54;;;;;;;;;;;;;;;2.09;100.00;101689.69;5026621;28;19917;-62
2023/03/15 07:48:19;;;;;;;;;;;;;;;2.12;100.00;101695.56;5024196;28;19969;-62
2023/03/15 07:50:45;;;;;;;;;;;;;;;2.18;100.00;101696.94;5026266;28;19920;-63
2023/03/15 07:53:10;;;;;;;;;;;;;;;2.28;100.00;101691.97;5018728;28;19963;-62
2023/03/15 07:55:35;;;;;;;;;;;;;;;2.38;100.00;101699.19;5020022;28;20272;-62
2023/03/15 07:58:01;;;;;;;;;;;;;;;2.47;100.00;101709.06;5022046;28;19925;-63
2023/03/15 08:00:27;;;;;;;;;;;;;;;2.55;100.00;101710.34;5024970;28;19928;-62
2023/03/15 08:02:52;;;;;;;;;;;;;;;2.68;100.00;101721.75;5019813;28;20318;-63
2023/03/15 08:05:20;;;;;;;;;;;;;;;2.77;100.00;101724.63;5020529;28;20390;-62
2023/03/15 08:07:47;;;;;;;;;;;;;;;2.84;100.00;101727.69;5019840;28;20063;-62
2023/03/15 08:10:12;;;;;;;;;;;;;;;2.94;100.00;101735.84;5019851;28;20386;-62
2023/03/15 08:12:39;;;;;;;;;;;;;;;3.09;100.00;101754.03;5018873;28;19932;-62
2023/03/15 08:15:04;;;;;;;;;;;;;;;3.22;100.00;101742.75;5023554;28;19971;-62
2023/03/15 08:17:30;;;;;;;;;;;;;;;3.28;100.00;101744.97;5022781;28;19917;-62
2023/03/15 08:19:55;;;;;;;;;;;;;;;3.35;100.00;101754.94;5022482;28;19968;-62
2023/03/15 08:22:20;;;;;;;;;;;;;;;3.37;100.00;101758.31;5025676;28;20286;-63
2023/03/15 08:24:45;;;;;;;;;;;;;;;3.44;100.00;101761.38;5019224;28;19917;-62
2023/03/15 08:27:10;;;;;;;;;;;;;;;3.58;100.00;101760.47;5025260;28;20023;-62
2023/03/15 08:29:36;;;;;;;;;;;;;;;3.71;100.00;101761.31;5023478;28;19921;-62
2023/03/15 08:32:02;;;;;;;;;;;;;;;3.79;100.00;101759.03;5021393;28;20055;-63
2023/03/15 08:34:27;;;;;;;;;;;;;;;3.99;100.00;101768.16;5021662;28;19921;-63
2023/03/15 08:36:52;;;;;;;;;;;;;;;4.13;100.00;101773.31;5024986;28;19924;-63
2023/03/15 08:39:17;;;;;;;;;;;;;;;4.19;99.93;101767.63;5022961;28;19945;-62
2023/03/15 08:41:44;;;;;;;;;;;;;;;4.25;99.76;101767.19;5022389;28;19948;-62
2023/03/15 08:44:09;;;;;;;;;;;;;;;4.39;99.31;101766.25;5019942;28;19987;-63
2023/03/15 08:46:34;;;;;;;;;;;;;;;4.52;98.73;101769.66;5025486;28;20382;-63
2023/03/15 08:49:00;;;;;;;;;;;;;;;4.55;98.21;101772.09;5026384;28;19929;-63
2023/03/15 08:51:26;;;;;;;;;;;;;;;4.52;97.12;101780.19;5025925;28;19921;-63
2023/03/15 08:53:51;;;;;;;;;;;;;;;4.53;96.37;101783.66;5023091;28;20618;-63
2023/03/15 08:56:17;;;;;;;;;;;;;;;4.51;95.53;101786.41;5021280;28;19926;-63
2023/03/15 08:58:42;;;;;;;;;;;;;;;4.51;94.67;101781.16;5024883;28;19917;-63
2023/03/15 09:01:10;;;;;;;;;;;;;;;4.50;93.90;101792.63;5025368;28;19983;-63
2023/03/15 09:03:35;;;;;;;;;;;;;;;4.53;93.84;101795.03;5021869;28;20017;-62
2023/03/15 09:06:00;;;;;;;;;;;;;;;4.63;93.57;101793.44;5024706;28;19996;-63
2023/03/15 09:08:25;;;;;;;;;;;;;;;4.74;93.46;101790.03;5020945;28;20343;-63
2023/03/15 09:10:55;;;;;;;;;;;;;;;4.81;92.20;101793.06;5024346;28;20374;-63
2023/03/15 09:13:20;;;;;;;;;;;;;;;4.88;91.87;101797.78;5021076;28;19920;-63
2023/03/15 09:15:45;;;;;;;;;;;;;;;4.96;91.74;101792.81;5026106;28;19984;-63
2023/03/15 09:18:10;;;;;;;;;;;;;;;5.06;91.56;101800.03;5027756;28;19916;-63
2023/03/15 09:20:38;;;;;;;;;;;;;;;5.10;91.00;101790.97;5026246;28;19996;-62
2023/03/15 09:23:03;;;;;;;;;;;;;;;5.11;90.44;101796.13;5024311;28;19920;-62
2023/03/15 09:25:28;;;;;;;;;;;;;;;5.22;89.41;101798.00;5030200;28;19921;-63
2023/03/15 09:27:54;;;;;;;;;;;;;;;5.34;89.14;101794.44;5029569;28;20314;-63
2023/03/15 09:30:19;;;;;;;;;;;;;;;5.45;89.01;101797.09;5024123;28;20302;-63
2023/03/15 09:32:45;;;;;;;;;;;;;;;5.53;87.70;101796.56;5029275;28;20374;-63
2023/03/15 09:35:14;;;;;;;;;;;;;;;5.54;86.32;101801.72;5029153;28;19913;-62
2023/03/15 09:37:41;;;;;;;;;;;;;;;5.63;85.31;101794.91;5027113;28;20394;-63
2023/03/15 09:40:12;;;;;;;;;;;;;;;5.81;85.48;101804.06;5023752;28;19920;-63
2023/03/15 09:42:37;;;;;;;;;;;;;;;5.91;84.63;101806.88;5024113;28;19917;-63
2023/03/15 09:45:21;;;;;;;;;;;;;;;5.92;84.42;101792.72;5027359;28;19974;-63
2023/03/15 09:48:16;;;;;;;;;;;;;;;6.09;83.05;101808.13;5028555;28;20314;-63
2023/03/15 09:50:50;;;;;;;;;;;;;;;6.16;82.92;101804.03;5002065;28;19925;-63
2023/03/15 09:53:19;;;;;;;;;;;;;;;6.18;82.01;101809.19;5028304;28;19920;-63
2023/03/15 09:55:46;;;;;;;;;;;;;;;6.34;82.64;101814.94;5027161;28;19996;-63
2023/03/15 09:58:15;;;;;;;;;;;;;;;6.48;80.41;101804.16;5027959;28;19917;-63
2023/03/15 10:00:46;;;;;;;;;;;;;;;6.63;79.92;101803.91;5027905;28;19917;-63
2023/03/15 10:03:15;;;;;;;;;;;;;;;6.81;78.87;101815.66;5016950;28;19922;-63
2023/03/15 10:05:43;;;;;;;;;;;;;;;6.95;78.56;101812.78;5026854;28;19917;-63
2023/03/15 10:08:13;;;;;;;;;;;;;;;7.14;77.80;101817.38;5030207;28;19921;-63
2023/03/15 10:10:43;;;;;;;;;;;;;;;7.18;76.35;101808.25;5019851;28;19925;-63
2023/03/15 10:13:17;;;;;;;;;;;;;;;7.13;75.25;101805.97;5019585;28;19917;-63
2023/03/15 10:16:01;;;;;;;;;;;;;;;7.12;75.52;101806.94;5022606;28;19909;-63
2023/03/15 10:18:44;;;;;;;;;;;;;;;7.07;74.02;101811.78;5023847;28;19970;-63
2023/03/15 10:21:11;;;;;;;;;;;;;;;6.89;72.16;101815.88;5020366;28;19921;-63
2023/03/15 10:24:04;;;;;;;;;;;;;;;6.75;72.06;101817.00;5025093;28;19925;-63
2023/03/15 10:26:34;;;;;;;;;;;;;;;6.85;71.50;101817.09;5022469;28;19980;-63
2023/03/15 10:29:01;;;;;;;;;;;;;;;6.98;71.81;101817.81;5028998;28;19917;-63
2023/03/15 10:31:30;;;;;;;;;;;;;;;7.17;73.40;101817.13;5023363;28;20011;-63
2023/03/15 10:33:56;;;;;;;;;;;;;;;7.40;73.70;101823.19;5020645;28;20367;-64
2023/03/15 10:36:22;;;;;;;;;;;;;;;7.67;74.15;101815.63;5024463;28;19972;-63
2023/03/15 10:38:49;;;;;;;;;;;;;;;7.90;74.45;101815.53;5026883;28;19916;-63
2023/03/15 10:41:27;;;;;;;;;;;;;;;7.95;71.36;101824.72;5019514;28;19921;-63
2023/03/15 10:44:01;;;;;;;;;;;;;;;7.77;68.80;101818.34;5021657;28;19972;-63
2023/03/15 10:46:27;;;;;;;;;;;;;;;7.70;67.25;101823.31;5025284;28;19959;-63
2023/03/15 10:48:52;;;;;;;;;;;;;;;7.60;67.16;101825.03;5027750;28;19980;-63
2023/03/15 10:51:25;;;;;;;;;;;;;;;7.38;65.53;101838.34;5024366;28;20341;-63
2023/03/15 10:54:11;;;;;;;;;;;;;;;7.09;64.88;101833.63;5020576;28;19924;-63
2023/03/15 10:56:42;;;;;;;;;;;;;;;6.93;64.17;101841.06;5022340;28;20417;-63
2023/03/15 10:59:16;;;;;;;;;;;;;;;6.87;64.56;101843.38;5024764;28;19926;-63
2023/03/15 11:01:41;;;;;;;;;;;;;;;6.82;64.21;101855.13;5017777;28;20318;-63
2023/03/15 11:04:23;;;;;;;;;;;;;;;6.90;64.40;101856.31;5023737;28;19921;-62
2023/03/15 11:07:09;;;;;;;;;;;;;;;7.03;63.88;101851.75;5026352;28;19916;-62
2023/03/15 11:09:41;;;;;;;;;;;;;;;7.19;62.88;101846.91;5024312;28;19921;-63
2023/03/15 11:12:08;;;;;;;;;;;;;;;7.31;61.28;101851.22;5023749;28;19917;-63
2023/03/15 11:14:35;;;;;;;;;;;;;;;7.45;60.23;101856.22;5017529;28;20584;-62
2023/03/15 11:17:01;;;;;;;;;;;;;;;7.60;60.06;101858.56;5024596;28;19923;-62
2023/03/15 11:19:28;;;;;;;;;;;;;;;7.72;60.02;101862.84;5021293;28;19917;-63
2023/03/15 11:21:54;;;;;;;;;;;;;;;7.74;58.36;101864.38;5022652;28;19921;-63
2023/03/15 11:24:22;;;;;;;;;;;;;;;7.89;58.87;101874.66;5024167;28;19920;-63
2023/03/15 11:26:52;;;;;;;;;;;;;;;8.06;59.39;101880.22;5022526;28;20003;-63
2023/03/15 11:29:22;;;;;;;;;;;;;;;8.23;59.79;101862.94;5020229;28;19968;-63
2023/03/15 11:31:49;;;;;;;;;;;;;;;8.39;59.56;101873.09;5024610;28;19928;-62
2023/03/15 11:34:35;;;;;;;;;;;;;;;8.43;58.64;101868.38;5020968;28;19967;-63
2023/03/15 11:37:03;;;;;;;;;;;;;;;8.46;58.03;101865.47;5024983;28;19924;-63
2023/03/15 11:39:35;;;;;;;;;;;;;;;8.50;57.38;101872.16;5023405;28;19996;-63
2023/03/15 11:42:04;;;;;;;;;;;;;;;8.49;56.76;101865.19;5021481;28;20406;-62
2023/03/15 11:44:37;;;;;;;;;;;;;;;8.44;56.80;101860.28;5027220;28;19921;-63
2023/03/15 11:47:08;;;;;;;;;;;;;;;8.45;55.98;101856.69;5022054;28;20465;-63
2023/03/15 11:49:42;;;;;;;;;;;;;;;8.51;56.02;101853.50;5026759;28;20022;-63
2023/03/15 11:52:07;;;;;;;;;;;;;;;8.76;56.46;101854.03;5026028;28;19921;-63
2023/03/15 11:54:32;;;;;;;;;;;;;;;8.95;55.07;101854.06;5025582;28;19920;-63
2023/03/15 11:57:05;;;;;;;;;;;;;;;9.17;54.42;101855.66;5019269;28;19997;-63
2023/03/15 11:59:35;;;;;;;;;;;;;;;9.20;53.21;101855.38;5026022;28;19917;-62
2023/03/15 12:02:09;;;;;;;;;;;;;;;9.12;52.59;101842.81;5025496;28;19921;-62
2023/03/15 12:04:34;;;;;;;;;;;;;;;8.97;52.97;101842.38;5026347;28;19975;-63
2023/03/15 12:07:02;;;;;;;;;;;;;;;8.80;52.87;101839.53;5026721;28;19917;-63
2023/03/15 12:09:36;;;;;;;;;;;;;;;8.83;52.67;101842.75;5018945;28;20357;-63
2023/03/15 12:12:05;;;;;;;;;;;;;;;8.96;51.96;101848.66;5021562;28;19956;-63
2023/03/15 12:14:32;;;;;;;;;;;;;;;9.05;51.35;101851.47;5023175;28;19920;-63
2023/03/15 12:17:16;;;;;;;;;;;;;;;8.85;49.00;101846.09;5021369;28;19975;-63
2023/03/15 12:19:41;;;;;;;;;;;;;;;8.42;48.25;101854.28;5022380;28;19925;-63
2023/03/15 12:22:12;;;;;;;;;;;;;;;8.26;48.78;101849.44;5023477;28;19917;-63
2023/03/15 12:24:38;;;;;;;;;;;;;;;8.54;48.83;101853.22;5021736;28;19921;-63
2023/03/15 12:27:14;;;;;;;;;;;;;;;8.76;49.26;101856.66;5020186;28;19928;-63
2023/03/15 12:29:40;;;;;;;;;;;;;;;8.93;48.73;101853.38;5016238;28;20477;-63
2023/03/15 12:32:10;;;;;;;;;;;;;;;9.16;48.82;101852.19;5024783;28;19917;-63
2023/03/15 12:34:56;;;;;;;;;;;;;;;9.46;48.76;101853.06;5017170;28;19939;-63
2023/03/15 12:37:42;;;;;;;;;;;;;;;9.59;48.77;101850.97;5020827;28;19913;-63
2023/03/15 12:40:21;;;;;;;;;;;;;;;9.53;48.86;101849.69;5025337;28;19974;-63
2023/03/15 12:42:46;;;;;;;;;;;;;;;9.49;49.63;101850.97;5024921;28;19933;-63